sensor_id;sensor_type;location;lat;lon;timestamp;temperature;humidity
22177;DHT22;11254;50.098;8.726;2022-07-18T00:01:13;17.90;63.20
22177;DHT22;11254;50.098;8.726;2022-07-18T00:03:41;17.90;63.30
22177;DHT22;11254;50.098;8.726;2022-07-18T00:06:11;17.90;63.40
22177;DHT22;11254;50.098;8.726;2022-07-18T00:08:39;17.80;63.30
22177;DHT22;11254;50.098;8.726;2022-07-18T00:11:07;17.80;63.40
22177;DHT22;11254;50.098;8.726;2022-07-18T00:13:35;17.80;63.80
22177;DHT22;11254;50.098;8.726;2022-07-18T00:16:03;17.80;64.00
22177;DHT22;11254;50.098;8.726;2022-07-18T00:18:32;17.80;64.50
22177;DHT22;11254;50.098;8.726;2022-07-18T00:21:00;17.70;65.00
22177;DHT22;11254;50.098;8.726;2022-07-18T00:23:30;17.70;65.50
22177;DHT22;11254;50.098;8.726;2022-07-18T00:25:58;17.70;66.10
22177;DHT22;11254;50.098;8.726;2022-07-18T00:28:26;17.70;66.40
22177;DHT22;11254;50.098;8.726;2022-07-18T00:30:54;17.60;66.90
22177;DHT22;11254;50.098;8.726;2022-07-18T00:33:22;17.70;67.50
22177;DHT22;11254;50.098;8.726;2022-07-18T00:35:50;17.60;68.10
22177;DHT22;11254;50.098;8.726;2022-07-18T00:38:18;17.60;68.60
22177;DHT22;11254;50.098;8.726;2022-07-18T00:40:47;17.50;69.20
22177;DHT22;11254;50.098;8.726;2022-07-18T00:43:17;17.50;69.70
22177;DHT22;11254;50.098;8.726;2022-07-18T00:45:49;17.50;70.10
22177;DHT22;11254;50.098;8.726;2022-07-18T00:48:19;17.50;70.60
22177;DHT22;11254;50.098;8.726;2022-07-18T00:50:48;17.40;71.20
22177;DHT22;11254;50.098;8.726;2022-07-18T00:53:16;17.40;71.70
22177;DHT22;11254;50.098;8.726;2022-07-18T00:55:45;17.30;72.10
22177;DHT22;11254;50.098;8.726;2022-07-18T00:58:15;17.30;72.40
22177;DHT22;11254;50.098;8.726;2022-07-18T01:00:43;17.30;72.30
22177;DHT22;11254;50.098;8.726;2022-07-18T01:03:29;17.20;71.90
22177;DHT22;11254;50.098;8.726;2022-07-18T01:05:57;17.20;71.40
22177;DHT22;11254;50.098;8.726;2022-07-18T01:08:26;17.30;71.20
22177;DHT22;11254;50.098;8.726;2022-07-18T01:10:55;17.20;71.10
22177;DHT22;11254;50.098;8.726;2022-07-18T01:13:24;17.20;71.20
22177;DHT22;11254;50.098;8.726;2022-07-18T01:15:52;17.30;70.70
22177;DHT22;11254;50.098;8.726;2022-07-18T01:18:21;17.30;71.00
22177;DHT22;11254;50.098;8.726;2022-07-18T01:20:50;17.30;71.40
22177;DHT22;11254;50.098;8.726;2022-07-18T01:23:19;17.30;71.90
22177;DHT22;11254;50.098;8.726;2022-07-18T01:25:47;17.20;72.60
22177;DHT22;11254;50.098;8.726;2022-07-18T01:28:15;17.20;72.70
22177;DHT22;11254;50.098;8.726;2022-07-18T01:30:43;17.20;73.10
22177;DHT22;11254;50.098;8.726;2022-07-18T01:33:11;17.10;73.60
22177;DHT22;11254;50.098;8.726;2022-07-18T01:35:39;17.10;74.10
22177;DHT22;11254;50.098;8.726;2022-07-18T01:38:08;17.00;75.00
22177;DHT22;11254;50.098;8.726;2022-07-18T01:40:36;17.00;75.50
22177;DHT22;11254;50.098;8.726;2022-07-18T01:43:04;17.00;75.50
22177;DHT22;11254;50.098;8.726;2022-07-18T01:45:33;17.00;75.40
22177;DHT22;11254;50.098;8.726;2022-07-18T01:48:02;17.00;75.80
22177;DHT22;11254;50.098;8.726;2022-07-18T01:50:30;16.90;75.80
22177;DHT22;11254;50.098;8.726;2022-07-18T01:52:58;16.90;76.30
22177;DHT22;11254;50.098;8.726;2022-07-18T01:55:27;16.90;76.70
22177;DHT22;11254;50.098;8.726;2022-07-18T01:57:55;16.80;76.90
22177;DHT22;11254;50.098;8.726;2022-07-18T02:00:23;16.80;77.50
22177;DHT22;11254;50.098;8.726;2022-07-18T02:02:51;16.80;77.40
22177;DHT22;11254;50.098;8.726;2022-07-18T02:05:19;16.80;77.80
22177;DHT22;11254;50.098;8.726;2022-07-18T02:07:47;16.70;78.30
22177;DHT22;11254;50.098;8.726;2022-07-18T02:10:17;16.70;79.20
22177;DHT22;11254;50.098;8.726;2022-07-18T02:12:47;16.70;79.30
22177;DHT22;11254;50.098;8.726;2022-07-18T02:15:16;16.60;79.70
22177;DHT22;11254;50.098;8.726;2022-07-18T02:17:44;16.60;80.50
22177;DHT22;11254;50.098;8.726;2022-07-18T02:20:13;16.60;79.80
22177;DHT22;11254;50.098;8.726;2022-07-18T02:22:42;16.50;79.90
22177;DHT22;11254;50.098;8.726;2022-07-18T02:25:10;16.50;80.50
22177;DHT22;11254;50.098;8.726;2022-07-18T02:27:38;16.50;80.60
22177;DHT22;11254;50.098;8.726;2022-07-18T02:30:10;16.50;81.00
22177;DHT22;11254;50.098;8.726;2022-07-18T02:32:38;16.40;80.20
22177;DHT22;11254;50.098;8.726;2022-07-18T02:35:07;16.40;80.40
22177;DHT22;11254;50.098;8.726;2022-07-18T02:37:37;16.40;81.00
22177;DHT22;11254;50.098;8.726;2022-07-18T02:40:09;16.40;81.20
22177;DHT22;11254;50.098;8.726;2022-07-18T02:42:37;16.40;81.70
22177;DHT22;11254;50.098;8.726;2022-07-18T02:45:08;16.40;81.90
22177;DHT22;11254;50.098;8.726;2022-07-18T02:47:36;16.30;82.50
22177;DHT22;11254;50.098;8.726;2022-07-18T02:50:05;16.30;82.90
22177;DHT22;11254;50.098;8.726;2022-07-18T02:52:33;16.30;83.20
22177;DHT22;11254;50.098;8.726;2022-07-18T02:55:01;16.20;83.20
22177;DHT22;11254;50.098;8.726;2022-07-18T02:57:30;16.20;83.30
22177;DHT22;11254;50.098;8.726;2022-07-18T02:59:58;16.20;83.90
22177;DHT22;11254;50.098;8.726;2022-07-18T03:02:28;16.10;84.40
22177;DHT22;11254;50.098;8.726;2022-07-18T03:04:56;16.10;85.10
22177;DHT22;11254;50.098;8.726;2022-07-18T03:07:24;16.10;86.10
22177;DHT22;11254;50.098;8.726;2022-07-18T03:09:52;16.10;86.60
22177;DHT22;11254;50.098;8.726;2022-07-18T03:12:20;16.00;86.50
22177;DHT22;11254;50.098;8.726;2022-07-18T03:14:49;16.00;86.80
22177;DHT22;11254;50.098;8.726;2022-07-18T03:17:17;16.00;87.70
22177;DHT22;11254;50.098;8.726;2022-07-18T03:19:46;15.90;87.90
22177;DHT22;11254;50.098;8.726;2022-07-18T03:22:14;15.90;88.70
22177;DHT22;11254;50.098;8.726;2022-07-18T03:24:42;15.90;89.30
22177;DHT22;11254;50.098;8.726;2022-07-18T03:27:10;15.80;90.00
22177;DHT22;11254;50.098;8.726;2022-07-18T03:29:38;15.80;90.60
22177;DHT22;11254;50.098;8.726;2022-07-18T03:32:06;15.80;90.60
22177;DHT22;11254;50.098;8.726;2022-07-18T03:34:34;15.70;90.60
22177;DHT22;11254;50.098;8.726;2022-07-18T03:37:04;15.70;90.80
22177;DHT22;11254;50.098;8.726;2022-07-18T03:39:32;15.60;91.00
22177;DHT22;11254;50.098;8.726;2022-07-18T03:42:00;15.60;91.20
22177;DHT22;11254;50.098;8.726;2022-07-18T03:44:28;15.70;91.30
22177;DHT22;11254;50.098;8.726;2022-07-18T03:46:56;15.70;91.40
22177;DHT22;11254;50.098;8.726;2022-07-18T03:49:24;15.70;91.70
22177;DHT22;11254;50.098;8.726;2022-07-18T03:51:52;15.70;91.80
22177;DHT22;11254;50.098;8.726;2022-07-18T03:54:23;15.60;92.10
22177;DHT22;11254;50.098;8.726;2022-07-18T03:56:52;15.60;92.20
22177;DHT22;11254;50.098;8.726;2022-07-18T03:59:20;15.60;92.40
22177;DHT22;11254;50.098;8.726;2022-07-18T04:01:48;15.60;92.30
22177;DHT22;11254;50.098;8.726;2022-07-18T04:04:16;15.60;92.50
22177;DHT22;11254;50.098;8.726;2022-07-18T04:06:44;15.60;92.80
22177;DHT22;11254;50.098;8.726;2022-07-18T04:09:12;15.60;92.80
22177;DHT22;11254;50.098;8.726;2022-07-18T04:11:41;15.60;92.80
22177;DHT22;11254;50.098;8.726;2022-07-18T04:14:09;15.60;92.90
22177;DHT22;11254;50.098;8.726;2022-07-18T04:16:37;15.60;92.80
22177;DHT22;11254;50.098;8.726;2022-07-18T04:19:06;15.70;92.90
22177;DHT22;11254;50.098;8.726;2022-07-18T04:21:34;15.80;92.70
22177;DHT22;11254;50.098;8.726;2022-07-18T04:24:02;15.80;92.70
22177;DHT22;11254;50.098;8.726;2022-07-18T04:26:30;15.90;92.50
22177;DHT22;11254;50.098;8.726;2022-07-18T04:29:00;15.90;92.40
22177;DHT22;11254;50.098;8.726;2022-07-18T04:31:28;16.00;92.30
22177;DHT22;11254;50.098;8.726;2022-07-18T04:33:56;16.00;92.20
22177;DHT22;11254;50.098;8.726;2022-07-18T04:36:24;16.00;92.00
22177;DHT22;11254;50.098;8.726;2022-07-18T04:38:52;16.10;92.10
22177;DHT22;11254;50.098;8.726;2022-07-18T04:41:20;16.20;92.10
22177;DHT22;11254;50.098;8.726;2022-07-18T04:43:51;16.20;91.50
22177;DHT22;11254;50.098;8.726;2022-07-18T04:46:21;16.30;90.90
22177;DHT22;11254;50.098;8.726;2022-07-18T04:48:49;16.40;90.80
22177;DHT22;11254;50.098;8.726;2022-07-18T04:51:17;16.50;90.70
22177;DHT22;11254;50.098;8.726;2022-07-18T04:53:45;16.50;90.40
22177;DHT22;11254;50.098;8.726;2022-07-18T04:56:13;16.50;90.30
22177;DHT22;11254;50.098;8.726;2022-07-18T04:58:41;16.60;90.10
22177;DHT22;11254;50.098;8.726;2022-07-18T05:01:09;16.70;87.70
22177;DHT22;11254;50.098;8.726;2022-07-18T05:03:38;16.80;87.10
22177;DHT22;11254;50.098;8.726;2022-07-18T05:06:06;16.80;86.90
22177;DHT22;11254;50.098;8.726;2022-07-18T05:08:35;16.80;86.80
22177;DHT22;11254;50.098;8.726;2022-07-18T05:11:03;16.90;85.50
22177;DHT22;11254;50.098;8.726;2022-07-18T05:13:31;17.00;84.20
22177;DHT22;11254;50.098;8.726;2022-07-18T05:15:59;17.10;83.40
22177;DHT22;11254;50.098;8.726;2022-07-18T05:18:27;17.20;81.70
22177;DHT22;11254;50.098;8.726;2022-07-18T05:20:57;17.30;81.30
22177;DHT22;11254;50.098;8.726;2022-07-18T05:23:25;17.40;81.30
22177;DHT22;11254;50.098;8.726;2022-07-18T05:25:53;17.50;80.20
22177;DHT22;11254;50.098;8.726;2022-07-18T05:28:21;17.40;80.80
22177;DHT22;11254;50.098;8.726;2022-07-18T05:30:50;17.40;80.40
22177;DHT22;11254;50.098;8.726;2022-07-18T05:33:21;17.50;79.90
22177;DHT22;11254;50.098;8.726;2022-07-18T05:35:49;17.60;79.90
22177;DHT22;11254;50.098;8.726;2022-07-18T05:38:18;17.70;78.90
22177;DHT22;11254;50.098;8.726;2022-07-18T05:40:46;17.80;78.10
22177;DHT22;11254;50.098;8.726;2022-07-18T05:43:15;17.80;78.20
22177;DHT22;11254;50.098;8.726;2022-07-18T05:45:43;17.80;77.80
22177;DHT22;11254;50.098;8.726;2022-07-18T05:48:11;17.80;78.30
22177;DHT22;11254;50.098;8.726;2022-07-18T05:50:39;18.00;77.80
22177;DHT22;11254;50.098;8.726;2022-07-18T05:53:07;18.10;77.10
22177;DHT22;11254;50.098;8.726;2022-07-18T05:55:36;18.10;76.70
22177;DHT22;11254;50.098;8.726;2022-07-18T05:58:04;18.30;75.70
22177;DHT22;11254;50.098;8.726;2022-07-18T06:00:34;18.40;75.00
22177;DHT22;11254;50.098;8.726;2022-07-18T06:03:02;18.50;73.30
22177;DHT22;11254;50.098;8.726;2022-07-18T06:05:30;18.60;72.60
22177;DHT22;11254;50.098;8.726;2022-07-18T06:07:58;18.80;72.00
22177;DHT22;11254;50.098;8.726;2022-07-18T06:10:26;19.00;71.50
22177;DHT22;11254;50.098;8.726;2022-07-18T06:12:56;19.20;70.50
22177;DHT22;11254;50.098;8.726;2022-07-18T06:20:21;20.00;67.50
22177;DHT22;11254;50.098;8.726;2022-07-18T06:22:50;26.10;50.40
22177;DHT22;11254;50.098;8.726;2022-07-18T06:25:18;28.00;44.80
22177;DHT22;11254;50.098;8.726;2022-07-18T06:30:16;29.50;40.80
22177;DHT22;11254;50.098;8.726;2022-07-18T06:32:44;30.60;37.50
22177;DHT22;11254;50.098;8.726;2022-07-18T06:35:12;30.50;36.70
22177;DHT22;11254;50.098;8.726;2022-07-18T06:37:40;29.50;37.40
22177;DHT22;11254;50.098;8.726;2022-07-18T06:40:09;28.10;39.80
22177;DHT22;11254;50.098;8.726;2022-07-18T06:42:37;26.80;41.80
22177;DHT22;11254;50.098;8.726;2022-07-18T06:45:06;25.80;43.40
22177;DHT22;11254;50.098;8.726;2022-07-18T06:47:41;24.80;44.60
22177;DHT22;11254;50.098;8.726;2022-07-18T06:50:10;24.70;45.80
22177;DHT22;11254;50.098;8.726;2022-07-18T06:52:38;25.80;45.60
22177;DHT22;11254;50.098;8.726;2022-07-18T06:55:08;28.00;41.70
22177;DHT22;11254;50.098;8.726;2022-07-18T06:57:37;30.50;37.10
22177;DHT22;11254;50.098;8.726;2022-07-18T07:00:06;32.40;33.30
22177;DHT22;11254;50.098;8.726;2022-07-18T07:02:41;33.70;31.40
22177;DHT22;11254;50.098;8.726;2022-07-18T07:05:09;35.00;29.70
22177;DHT22;11254;50.098;8.726;2022-07-18T07:07:37;35.90;28.80
22177;DHT22;11254;50.098;8.726;2022-07-18T07:10:13;37.40;27.70
22177;DHT22;11254;50.098;8.726;2022-07-18T07:12:43;37.80;26.40
22177;DHT22;11254;50.098;8.726;2022-07-18T07:15:12;38.50;25.90
22177;DHT22;11254;50.098;8.726;2022-07-18T07:17:41;38.30;25.30
22177;DHT22;11254;50.098;8.726;2022-07-18T07:20:11;39.00;25.40
22177;DHT22;11254;50.098;8.726;2022-07-18T07:22:43;39.80;25.00
22177;DHT22;11254;50.098;8.726;2022-07-18T07:25:12;39.50;24.90
22177;DHT22;11254;50.098;8.726;2022-07-18T07:27:40;39.50;24.70
22177;DHT22;11254;50.098;8.726;2022-07-18T07:30:10;39.60;24.90
22177;DHT22;11254;50.098;8.726;2022-07-18T07:32:40;39.60;24.70
22177;DHT22;11254;50.098;8.726;2022-07-18T07:35:11;40.10;24.30
22177;DHT22;11254;50.098;8.726;2022-07-18T07:37:41;40.30;23.90
22177;DHT22;11254;50.098;8.726;2022-07-18T07:40:10;40.10;23.90
22177;DHT22;11254;50.098;8.726;2022-07-18T07:42:38;40.30;23.90
22177;DHT22;11254;50.098;8.726;2022-07-18T07:45:07;40.50;23.50
22177;DHT22;11254;50.098;8.726;2022-07-18T07:47:36;40.10;23.40
22177;DHT22;11254;50.098;8.726;2022-07-18T07:50:06;40.40;23.50
22177;DHT22;11254;50.098;8.726;2022-07-18T10:37:44;40.70;23.40
22177;DHT22;11254;50.098;8.726;2022-07-18T10:40:23;37.70;23.10
22177;DHT22;11254;50.098;8.726;2022-07-18T10:45:56;36.40;23.40
22177;DHT22;11254;50.098;8.726;2022-07-18T10:48:47;35.80;24.20
22177;DHT22;11254;50.098;8.726;2022-07-18T10:51:16;35.10;24.30
22177;DHT22;11254;50.098;8.726;2022-07-18T10:53:59;34.70;24.90
22177;DHT22;11254;50.098;8.726;2022-07-18T10:57:08;34.30;24.80
22177;DHT22;11254;50.098;8.726;2022-07-18T11:02:35;34.00;25.90
22177;DHT22;11254;50.098;8.726;2022-07-18T11:05:34;34.00;25.50
22177;DHT22;11254;50.098;8.726;2022-07-18T11:08:17;33.80;24.90
22177;DHT22;11254;50.098;8.726;2022-07-18T11:11:11;34.00;25.10
22177;DHT22;11254;50.098;8.726;2022-07-18T11:13:44;34.20;25.30
22177;DHT22;11254;50.098;8.726;2022-07-18T11:16:18;34.10;25.00
22177;DHT22;11254;50.098;8.726;2022-07-18T11:19:15;34.00;25.40
22177;DHT22;11254;50.098;8.726;2022-07-18T11:21:46;33.90;25.00
22177;DHT22;11254;50.098;8.726;2022-07-18T11:24:14;33.90;25.20
22177;DHT22;11254;50.098;8.726;2022-07-18T11:26:47;33.70;25.40
22177;DHT22;11254;50.098;8.726;2022-07-18T11:29:18;33.50;25.40
22177;DHT22;11254;50.098;8.726;2022-07-18T11:31:49;33.40;25.40
22177;DHT22;11254;50.098;8.726;2022-07-18T11:34:18;33.30;25.20
22177;DHT22;11254;50.098;8.726;2022-07-18T11:37:03;33.50;25.40
22177;DHT22;11254;50.098;8.726;2022-07-18T11:39:32;33.60;25.20
22177;DHT22;11254;50.098;8.726;2022-07-18T11:42:02;33.60;25.30
22177;DHT22;11254;50.098;8.726;2022-07-18T11:44:31;33.70;25.40
22177;DHT22;11254;50.098;8.726;2022-07-18T11:47:04;33.70;25.90
22177;DHT22;11254;50.098;8.726;2022-07-18T11:49:33;33.70;25.40
22177;DHT22;11254;50.098;8.726;2022-07-18T11:52:03;33.50;25.50
22177;DHT22;11254;50.098;8.726;2022-07-18T11:54:32;33.30;25.60
22177;DHT22;11254;50.098;8.726;2022-07-18T11:57:01;33.20;25.40
22177;DHT22;11254;50.098;8.726;2022-07-18T11:59:36;33.30;25.80
22177;DHT22;11254;50.098;8.726;2022-07-18T12:02:05;33.40;25.80
22177;DHT22;11254;50.098;8.726;2022-07-18T12:04:33;33.40;25.60
22177;DHT22;11254;50.098;8.726;2022-07-18T12:07:17;33.50;25.60
22177;DHT22;11254;50.098;8.726;2022-07-18T12:09:46;33.30;25.60
22177;DHT22;11254;50.098;8.726;2022-07-18T12:12:17;33.30;25.90
22177;DHT22;11254;50.098;8.726;2022-07-18T12:14:58;33.30;25.80
22177;DHT22;11254;50.098;8.726;2022-07-18T12:17:27;33.40;25.60
22177;DHT22;11254;50.098;8.726;2022-07-18T12:20:10;33.40;25.50
22177;DHT22;11254;50.098;8.726;2022-07-18T12:23:07;33.40;25.40
22177;DHT22;11254;50.098;8.726;2022-07-18T12:25:56;33.50;25.50
22177;DHT22;11254;50.098;8.726;2022-07-18T12:28:27;33.50;25.40
22177;DHT22;11254;50.098;8.726;2022-07-18T12:30:56;33.40;25.30
22177;DHT22;11254;50.098;8.726;2022-07-18T12:33:27;33.30;25.60
22177;DHT22;11254;50.098;8.726;2022-07-18T12:35:56;33.10;25.70
22177;DHT22;11254;50.098;8.726;2022-07-18T12:38:26;33.10;25.50
22177;DHT22;11254;50.098;8.726;2022-07-18T12:40:56;33.30;25.70
22177;DHT22;11254;50.098;8.726;2022-07-18T12:43:28;33.30;25.70
22177;DHT22;11254;50.098;8.726;2022-07-18T12:45:57;33.30;25.50
22177;DHT22;11254;50.098;8.726;2022-07-18T12:48:27;33.40;25.30
22177;DHT22;11254;50.098;8.726;2022-07-18T12:50:56;33.50;25.60
22177;DHT22;11254;50.098;8.726;2022-07-18T12:53:27;33.60;25.70
22177;DHT22;11254;50.098;8.726;2022-07-18T12:55:55;33.80;25.40
22177;DHT22;11254;50.098;8.726;2022-07-18T12:58:23;33.80;25.30
22177;DHT22;11254;50.098;8.726;2022-07-18T13:00:51;33.80;25.60
22177;DHT22;11254;50.098;8.726;2022-07-18T13:03:26;33.80;25.50
22177;DHT22;11254;50.098;8.726;2022-07-18T13:05:54;33.90;25.40
22177;DHT22;11254;50.098;8.726;2022-07-18T13:08:22;33.90;25.30
22177;DHT22;11254;50.098;8.726;2022-07-18T13:10:55;33.80;25.20
22177;DHT22;11254;50.098;8.726;2022-07-18T13:13:25;33.70;25.40
22177;DHT22;11254;50.098;8.726;2022-07-18T13:15:54;33.80;25.30
22177;DHT22;11254;50.098;8.726;2022-07-18T13:18:22;33.90;25.00
22177;DHT22;11254;50.098;8.726;2022-07-18T13:20:50;33.90;25.00
22177;DHT22;11254;50.098;8.726;2022-07-18T13:23:18;33.60;25.60
22177;DHT22;11254;50.098;8.726;2022-07-18T13:25:46;33.50;25.60
22177;DHT22;11254;50.098;8.726;2022-07-18T13:28:15;33.50;25.70
22177;DHT22;11254;50.098;8.726;2022-07-18T13:30:43;33.50;25.70
22177;DHT22;11254;50.098;8.726;2022-07-18T13:33:12;33.60;25.80
22177;DHT22;11254;50.098;8.726;2022-07-18T13:35:40;33.90;25.40
22177;DHT22;11254;50.098;8.726;2022-07-18T13:38:08;34.10;25.80
22177;DHT22;11254;50.098;8.726;2022-07-18T13:40:36;34.40;25.70
22177;DHT22;11254;50.098;8.726;2022-07-18T13:43:04;34.40;25.10
22177;DHT22;11254;50.098;8.726;2022-07-18T13:45:33;34.30;25.20
22177;DHT22;11254;50.098;8.726;2022-07-18T13:48:01;34.30;25.00
22177;DHT22;11254;50.098;8.726;2022-07-18T13:50:30;34.20;24.90
22177;DHT22;11254;50.098;8.726;2022-07-18T13:52:58;34.20;25.20
22177;DHT22;11254;50.098;8.726;2022-07-18T13:55:26;34.20;25.20
22177;DHT22;11254;50.098;8.726;2022-07-18T13:57:55;34.30;25.20
22177;DHT22;11254;50.098;8.726;2022-07-18T14:00:23;34.40;25.20
22177;DHT22;11254;50.098;8.726;2022-07-18T14:02:52;34.40;25.20
22177;DHT22;11254;50.098;8.726;2022-07-18T14:05:21;34.50;25.00
22177;DHT22;11254;50.098;8.726;2022-07-18T14:07:48;34.50;25.10
22177;DHT22;11254;50.098;8.726;2022-07-18T14:10:16;34.40;24.80
22177;DHT22;11254;50.098;8.726;2022-07-18T14:12:44;34.40;24.90
22177;DHT22;11254;50.098;8.726;2022-07-18T14:15:13;34.40;25.10
22177;DHT22;11254;50.098;8.726;2022-07-18T14:17:41;34.30;24.80
22177;DHT22;11254;50.098;8.726;2022-07-18T14:20:11;34.30;25.20
22177;DHT22;11254;50.098;8.726;2022-07-18T14:22:41;34.30;25.40
22177;DHT22;11254;50.098;8.726;2022-07-18T14:25:12;34.00;25.70
22177;DHT22;11254;50.098;8.726;2022-07-18T14:27:41;34.00;25.70
22177;DHT22;11254;50.098;8.726;2022-07-18T14:30:11;34.30;25.50
22177;DHT22;11254;50.098;8.726;2022-07-18T14:32:40;34.40;25.50
22177;DHT22;11254;50.098;8.726;2022-07-18T14:35:10;34.40;25.60
22177;DHT22;11254;50.098;8.726;2022-07-18T14:37:39;34.30;25.50
22177;DHT22;11254;50.098;8.726;2022-07-18T14:40:08;34.40;25.60
22177;DHT22;11254;50.098;8.726;2022-07-18T14:42:36;34.40;25.40
22177;DHT22;11254;50.098;8.726;2022-07-18T14:45:05;34.50;25.40
22177;DHT22;11254;50.098;8.726;2022-07-18T14:47:33;34.50;25.40
22177;DHT22;11254;50.098;8.726;2022-07-18T14:50:03;34.60;25.40
22177;DHT22;11254;50.098;8.726;2022-07-18T14:52:32;34.70;25.30
22177;DHT22;11254;50.098;8.726;2022-07-18T14:55:01;34.70;25.30
22177;DHT22;11254;50.098;8.726;2022-07-18T14:57:30;34.70;25.10
22177;DHT22;11254;50.098;8.726;2022-07-18T15:00:00;34.50;25.30
22177;DHT22;11254;50.098;8.726;2022-07-18T15:02:28;34.40;25.30
22177;DHT22;11254;50.098;8.726;2022-07-18T15:04:56;34.30;25.60
22177;DHT22;11254;50.098;8.726;2022-07-18T15:07:24;34.30;25.70
22177;DHT22;11254;50.098;8.726;2022-07-18T15:09:54;34.20;25.50
22177;DHT22;11254;50.098;8.726;2022-07-18T15:12:22;34.10;25.80
22177;DHT22;11254;50.098;8.726;2022-07-18T15:14:50;34.00;25.80
22177;DHT22;11254;50.098;8.726;2022-07-18T15:17:20;33.90;25.80
22177;DHT22;11254;50.098;8.726;2022-07-18T15:19:49;33.80;25.90
22177;DHT22;11254;50.098;8.726;2022-07-18T15:22:17;33.90;25.70
22177;DHT22;11254;50.098;8.726;2022-07-18T15:24:45;34.00;25.90
22177;DHT22;11254;50.098;8.726;2022-07-18T15:27:14;34.10;25.50
22177;DHT22;11254;50.098;8.726;2022-07-18T15:29:42;34.10;25.50
22177;DHT22;11254;50.098;8.726;2022-07-18T15:32:10;34.00;25.50
22177;DHT22;11254;50.098;8.726;2022-07-18T15:34:39;34.00;25.50
22177;DHT22;11254;50.098;8.726;2022-07-18T15:37:07;34.00;25.70
22177;DHT22;11254;50.098;8.726;2022-07-18T15:39:35;34.10;25.90
22177;DHT22;11254;50.098;8.726;2022-07-18T15:42:03;34.10;25.90
22177;DHT22;11254;50.098;8.726;2022-07-18T15:44:33;34.10;25.70
22177;DHT22;11254;50.098;8.726;2022-07-18T15:47:05;34.10;25.70
22177;DHT22;11254;50.098;8.726;2022-07-18T15:49:35;34.10;26.00
22177;DHT22;11254;50.098;8.726;2022-07-18T15:52:04;34.10;25.60
22177;DHT22;11254;50.098;8.726;2022-07-18T15:54:34;34.00;25.80
22177;DHT22;11254;50.098;8.726;2022-07-18T15:57:03;34.00;25.80
22177;DHT22;11254;50.098;8.726;2022-07-18T15:59:32;34.00;25.80
22177;DHT22;11254;50.098;8.726;2022-07-18T16:02:01;34.00;25.80
22177;DHT22;11254;50.098;8.726;2022-07-18T16:04:29;33.90;25.90
22177;DHT22;11254;50.098;8.726;2022-07-18T16:06:57;33.90;26.10
22177;DHT22;11254;50.098;8.726;2022-07-18T16:09:25;33.90;26.20
22177;DHT22;11254;50.098;8.726;2022-07-18T16:11:53;33.90;26.30
22177;DHT22;11254;50.098;8.726;2022-07-18T16:14:21;33.90;26.30
22177;DHT22;11254;50.098;8.726;2022-07-18T16:16:50;33.80;26.20
22177;DHT22;11254;50.098;8.726;2022-07-18T16:19:18;33.80;26.10
22177;DHT22;11254;50.098;8.726;2022-07-18T16:21:46;33.80;26.00
22177;DHT22;11254;50.098;8.726;2022-07-18T16:24:15;33.70;25.80
22177;DHT22;11254;50.098;8.726;2022-07-18T16:26:43;33.60;26.00
22177;DHT22;11254;50.098;8.726;2022-07-18T16:29:11;33.60;26.30
22177;DHT22;11254;50.098;8.726;2022-07-18T16:31:39;33.50;26.40
22177;DHT22;11254;50.098;8.726;2022-07-18T16:34:09;33.40;26.10
22177;DHT22;11254;50.098;8.726;2022-07-18T16:36:37;33.30;26.40
22177;DHT22;11254;50.098;8.726;2022-07-18T16:39:05;33.30;26.40
22177;DHT22;11254;50.098;8.726;2022-07-18T16:41:33;33.30;26.30
22177;DHT22;11254;50.098;8.726;2022-07-18T16:44:02;33.30;26.50
22177;DHT22;11254;50.098;8.726;2022-07-18T16:46:30;33.30;26.30
22177;DHT22;11254;50.098;8.726;2022-07-18T16:48:59;33.20;26.30
22177;DHT22;11254;50.098;8.726;2022-07-18T16:51:29;33.20;26.50
22177;DHT22;11254;50.098;8.726;2022-07-18T16:53:58;33.00;26.70
22177;DHT22;11254;50.098;8.726;2022-07-18T16:56:26;32.90;27.00
22177;DHT22;11254;50.098;8.726;2022-07-18T16:58:55;32.90;26.80
22177;DHT22;11254;50.098;8.726;2022-07-18T17:01:26;32.80;26.70
22177;DHT22;11254;50.098;8.726;2022-07-18T17:03:54;32.80;26.80
22177;DHT22;11254;50.098;8.726;2022-07-18T17:06:22;32.70;26.90
22177;DHT22;11254;50.098;8.726;2022-07-18T17:08:52;32.70;26.70
22177;DHT22;11254;50.098;8.726;2022-07-18T17:11:20;32.70;26.90
22177;DHT22;11254;50.098;8.726;2022-07-18T17:13:49;32.60;27.10
22177;DHT22;11254;50.098;8.726;2022-07-18T17:16:17;32.50;27.10
22177;DHT22;11254;50.098;8.726;2022-07-18T17:18:46;32.50;27.20
22177;DHT22;11254;50.098;8.726;2022-07-18T17:21:16;32.50;27.10
22177;DHT22;11254;50.098;8.726;2022-07-18T17:23:46;32.40;27.00
22177;DHT22;11254;50.098;8.726;2022-07-18T17:26:22;32.30;27.50
22177;DHT22;11254;50.098;8.726;2022-07-18T17:28:51;32.30;27.40
22177;DHT22;11254;50.098;8.726;2022-07-18T17:31:19;32.20;27.40
22177;DHT22;11254;50.098;8.726;2022-07-18T17:33:48;32.20;27.50
22177;DHT22;11254;50.098;8.726;2022-07-18T17:36:19;32.10;27.80
22177;DHT22;11254;50.098;8.726;2022-07-18T17:38:48;32.00;27.90
22177;DHT22;11254;50.098;8.726;2022-07-18T17:41:17;32.00;27.90
22177;DHT22;11254;50.098;8.726;2022-07-18T17:43:47;31.90;28.10
22177;DHT22;11254;50.098;8.726;2022-07-18T17:46:17;31.80;28.20
22177;DHT22;11254;50.098;8.726;2022-07-18T17:48:46;31.70;28.00
22177;DHT22;11254;50.098;8.726;2022-07-18T17:51:16;31.60;28.20
22177;DHT22;11254;50.098;8.726;2022-07-18T17:53:44;31.50;28.50
22177;DHT22;11254;50.098;8.726;2022-07-18T17:56:21;31.40;28.40
22177;DHT22;11254;50.098;8.726;2022-07-18T17:58:50;31.40;28.50
22177;DHT22;11254;50.098;8.726;2022-07-18T18:01:18;31.30;28.60
22177;DHT22;11254;50.098;8.726;2022-07-18T18:03:47;31.20;28.60
22177;DHT22;11254;50.098;8.726;2022-07-18T18:06:16;31.10;29.10
22177;DHT22;11254;50.098;8.726;2022-07-18T18:08:44;31.00;29.00
22177;DHT22;11254;50.098;8.726;2022-07-18T18:11:12;31.00;29.10
22177;DHT22;11254;50.098;8.726;2022-07-18T18:13:48;30.80;29.10
22177;DHT22;11254;50.098;8.726;2022-07-18T18:16:18;30.80;29.40
22177;DHT22;11254;50.098;8.726;2022-07-18T18:18:46;30.70;29.90
22177;DHT22;11254;50.098;8.726;2022-07-18T18:21:14;30.60;31.20
22177;DHT22;11254;50.098;8.726;2022-07-18T18:23:42;30.50;32.70
22177;DHT22;11254;50.098;8.726;2022-07-18T18:26:10;30.30;33.60
22177;DHT22;11254;50.098;8.726;2022-07-18T18:28:38;30.20;34.20
22177;DHT22;11254;50.098;8.726;2022-07-18T18:31:06;30.10;34.70
22177;DHT22;11254;50.098;8.726;2022-07-18T18:33:36;29.90;34.90
22177;DHT22;11254;50.098;8.726;2022-07-18T18:36:04;29.80;35.10
22177;DHT22;11254;50.098;8.726;2022-07-18T18:38:33;29.60;35.40
22177;DHT22;11254;50.098;8.726;2022-07-18T18:41:01;29.50;35.70
22177;DHT22;11254;50.098;8.726;2022-07-18T18:43:30;29.30;35.90